sensor_id;sensor_type;location;lat;lon;timestamp;pressure;altitude;pressure_sealevel;temperature;humidity
18323;BME280;9287;49.456;11.064;2023-04-20T00:00:09;98207.66;;;4.10;100.00
18323;BME280;9287;49.456;11.064;2023-04-20T00:02:37;98206.38;;;4.07;100.00
18323;BME280;9287;49.456;11.064;2023-04-20T00:05:07;98201.06;;;4.02;100.00
18323;BME280;9287;49.456;11.064;2023-04-20T00:07:37;98211.28;;;4.05;100.00
18323;BME280;9287;49.456;11.064;2023-04-20T00:10:09;98201.66;;;3.99;100.00
18323;BME280;9287;49.456;11.064;2023-04-20T00:12:37;98200.50;;;3.92;100.00
18323;BME280;9287;49.456;11.064;2023-04-20T00:15:06;98193.31;;;3.87;100.00
18323;BME280;9287;49.456;11.064;2023-04-20T00:17:36;98192.91;;;3.94;100.00
18323;BME280;9287;49.456;11.064;2023-04-20T00:20:06;98177.59;;;3.89;100.00
18323;BME280;9287;49.456;11.064;2023-04-20T00:22:35;98181.28;;;3.93;100.00
18323;BME280;9287;49.456;11.064;2023-04-20T00:25:05;98182.41;;;3.92;100.00
18323;BME280;9287;49.456;11.064;2023-04-20T00:27:35;98173.28;;;3.88;100.00
18323;BME280;9287;49.456;11.064;2023-04-20T00:30:04;98172.00;;;3.85;100.00
18323;BME280;9287;49.456;11.064;2023-04-20T00:32:34;98169.59;;;3.84;100.00
18323;BME280;9287;49.456;11.064;2023-04-20T00:35:02;98166.91;;;3.84;100.00
18323;BME280;9287;49.456;11.064;2023-04-20T00:37:31;98166.09;;;3.97;100.00
18323;BME280;9287;49.456;11.064;2023-04-20T00:40:01;98158.88;;;3.93;100.00
18323;BME280;9287;49.456;11.064;2023-04-20T00:42:31;98167.69;;;3.98;100.00
18323;BME280;9287;49.456;11.064;2023-04-20T00:45:03;98159.88;;;3.97;100.00
18323;BME280;9287;49.456;11.064;2023-04-20T00:47:34;98157.47;;;3.95;100.00
18323;BME280;9287;49.456;11.064;2023-04-20T00:50:03;98155.44;;;4.01;100.00
18323;BME280;9287;49.456;11.064;2023-04-20T00:52:32;98153.03;;;3.99;100.00
18323;BME280;9287;49.456;11.064;2023-04-20T00:55:06;98146.06;;;3.98;100.00
18323;BME280;9287;49.456;11.064;2023-04-20T00:57:41;98149.06;;;3.97;100.00
18323;BME280;9287;49.456;11.064;2023-04-20T01:00:14;98143.28;;;3.90;100.00
18323;BME280;9287;49.456;11.064;2023-04-20T01:02:42;98144.31;;;3.80;100.00
18323;BME280;9287;49.456;11.064;2023-04-20T01:05:12;98143.91;;;3.73;100.00
18323;BME280;9287;49.456;11.064;2023-04-20T01:07:42;98137.91;;;3.76;100.00
18323;BME280;9287;49.456;11.064;2023-04-20T01:10:10;98142.31;;;3.72;100.00
18323;BME280;9287;49.456;11.064;2023-04-20T01:12:41;98134.31;;;3.67;100.00
18323;BME280;9287;49.456;11.064;2023-04-20T01:15:13;98132.16;;;3.55;100.00
18323;BME280;9287;49.456;11.064;2023-04-20T01:17:41;98135.75;;;3.50;100.00
18323;BME280;9287;49.456;11.064;2023-04-20T01:20:14;98134.16;;;3.49;100.00
18323;BME280;9287;49.456;11.064;2023-04-20T01:22:49;98131.44;;;3.49;100.00
18323;BME280;9287;49.456;11.064;2023-04-20T01:25:17;98137.94;;;3.48;100.00
18323;BME280;9287;49.456;11.064;2023-04-20T01:27:47;98146.75;;;3.54;100.00
18323;BME280;9287;49.456;11.064;2023-04-20T01:30:17;98154.56;;;3.56;100.00
18323;BME280;9287;49.456;11.064;2023-04-20T01:32:45;98144.75;;;3.60;100.00
18323;BME280;9287;49.456;11.064;2023-04-20T01:35:14;98137.75;;;3.59;100.00
18323;BME280;9287;49.456;11.064;2023-04-20T01:37:42;98133.66;;;3.47;100.00
18323;BME280;9287;49.456;11.064;2023-04-20T01:40:16;98141.56;;;3.30;100.00
18323;BME280;9287;49.456;11.064;2023-04-20T01:42:46;98135.19;;;3.26;100.00
18323;BME280;9287;49.456;11.064;2023-04-20T01:45:14;98133.88;;;3.24;100.00
18323;BME280;9287;49.456;11.064;2023-04-20T01:47:42;98125.19;;;3.13;100.00
18323;BME280;9287;49.456;11.064;2023-04-20T01:50:10;98123.78;;;3.02;100.00
18323;BME280;9287;49.456;11.064;2023-04-20T01:55:35;98129.91;;;3.07;100.00
18323;BME280;9287;49.456;11.064;2023-04-20T01:58:02;98115.31;;;3.08;100.00
18323;BME280;9287;49.456;11.064;2023-04-20T02:00:31;98117.09;;;2.99;100.00
18323;BME280;9287;49.456;11.064;2023-04-20T02:02:59;98118.41;;;3.02;100.00
18323;BME280;9287;49.456;11.064;2023-04-20T02:05:27;98115.19;;;3.00;100.00
18323;BME280;9287;49.456;11.064;2023-04-20T02:07:56;98115.41;;;2.90;100.00
18323;BME280;9287;49.456;11.064;2023-04-20T02:10:24;98124.59;;;2.89;100.00
18323;BME280;9287;49.456;11.064;2023-04-20T02:12:53;98120.59;;;3.13;100.00
18323;BME280;9287;49.456;11.064;2023-04-20T02:15:21;98111.00;;;3.21;100.00
18323;BME280;9287;49.456;11.064;2023-04-20T02:17:49;98107.41;;;3.26;100.00
18323;BME280;9287;49.456;11.064;2023-04-20T02:20:18;98108.00;;;3.23;100.00
18323;BME280;9287;49.456;11.064;2023-04-20T02:22:46;98110.41;;;3.24;100.00
18323;BME280;9287;49.456;11.064;2023-04-20T02:25:14;98109.41;;;3.20;100.00
18323;BME280;9287;49.456;11.064;2023-04-20T02:27:41;98104.59;;;3.17;100.00
18323;BME280;9287;49.456;11.064;2023-04-20T02:30:12;98112.78;;;3.12;100.00
18323;BME280;9287;49.456;11.064;2023-04-20T02:32:39;98103.81;;;3.17;100.00
18323;BME280;9287;49.456;11.064;2023-04-20T02:35:08;98092.00;;;3.12;100.00
18323;BME280;9287;49.456;11.064;2023-04-20T02:37:35;98086.94;;;3.11;100.00
18323;BME280;9287;49.456;11.064;2023-04-20T02:40:04;98092.63;;;3.09;100.00
18323;BME280;9287;49.456;11.064;2023-04-20T02:42:34;98089.00;;;3.14;100.00
18323;BME280;9287;49.456;11.064;2023-04-20T02:45:02;98083.03;;;3.03;100.00
18323;BME280;9287;49.456;11.064;2023-04-20T02:47:33;98093.69;;;2.95;100.00
18323;BME280;9287;49.456;11.064;2023-04-20T02:50:01;98090.41;;;2.98;100.00
18323;BME280;9287;49.456;11.064;2023-04-20T02:52:29;98087.41;;;2.86;100.00
18323;BME280;9287;49.456;11.064;2023-04-20T02:54:57;98083.41;;;2.97;100.00
18323;BME280;9287;49.456;11.064;2023-04-20T02:57:26;98081.81;;;2.96;100.00
18323;BME280;9287;49.456;11.064;2023-04-20T02:59:54;98075.00;;;3.12;100.00
18323;BME280;9287;49.456;11.064;2023-04-20T03:02:26;98080.63;;;3.15;100.00
18323;BME280;9287;49.456;11.064;2023-04-20T03:04:56;98082.00;;;3.13;100.00
18323;BME280;9287;49.456;11.064;2023-04-20T03:07:23;98079.00;;;3.14;100.00
18323;BME280;9287;49.456;11.064;2023-04-20T03:09:54;98079.44;;;3.08;100.00
18323;BME280;9287;49.456;11.064;2023-04-20T03:12:24;98072.31;;;3.12;100.00
18323;BME280;9287;49.456;11.064;2023-04-20T03:14:52;98081.72;;;3.01;100.00
18323;BME280;9287;49.456;11.064;2023-04-20T03:17:20;98076.94;;;2.98;100.00
18323;BME280;9287;49.456;11.064;2023-04-20T03:19:49;98077.66;;;2.90;100.00
18323;BME280;9287;49.456;11.064;2023-04-20T03:22:19;98074.44;;;2.88;100.00
18323;BME280;9287;49.456;11.064;2023-04-20T03:24:49;98077.72;;;2.85;100.00
18323;BME280;9287;49.456;11.064;2023-04-20T03:27:19;98071.25;;;2.86;100.00
18323;BME280;9287;49.456;11.064;2023-04-20T03:29:47;98075.84;;;2.85;100.00
18323;BME280;9287;49.456;11.064;2023-04-20T03:32:15;98068.47;;;2.77;100.00
18323;BME280;9287;49.456;11.064;2023-04-20T03:34:44;98072.84;;;2.87;100.00
18323;BME280;9287;49.456;11.064;2023-04-20T03:37:12;98075.03;;;2.98;100.00
18323;BME280;9287;49.456;11.064;2023-04-20T03:39:41;98073.25;;;2.94;100.00
18323;BME280;9287;49.456;11.064;2023-04-20T03:42:09;98067.41;;;3.14;100.00
18323;BME280;9287;49.456;11.064;2023-04-20T03:44:38;98070.94;;;2.87;100.00
18323;BME280;9287;49.456;11.064;2023-04-20T03:47:05;98066.25;;;2.93;100.00
18323;BME280;9287;49.456;11.064;2023-04-20T03:49:34;98070.03;;;3.05;100.00
18323;BME280;9287;49.456;11.064;2023-04-20T03:52:04;98073.84;;;2.91;100.00
18323;BME280;9287;49.456;11.064;2023-04-20T03:54:34;98072.34;;;2.85;100.00
18323;BME280;9287;49.456;11.064;2023-04-20T03:57:03;98068.63;;;2.80;100.00
18323;BME280;9287;49.456;11.064;2023-04-20T03:59:31;98071.72;;;2.60;100.00
18323;BME280;9287;49.456;11.064;2023-04-20T04:02:01;98067.44;;;2.59;100.00
18323;BME280;9287;49.456;11.064;2023-04-20T04:04:31;98059.25;;;2.51;100.00
18323;BME280;9287;49.456;11.064;2023-04-20T04:06:59;98062.81;;;2.46;100.00
18323;BME280;9287;49.456;11.064;2023-04-20T04:09:27;98062.22;;;2.49;100.00
18323;BME280;9287;49.456;11.064;2023-04-20T04:11:55;98058.44;;;2.50;100.00
18323;BME280;9287;49.456;11.064;2023-04-20T04:14:25;98062.81;;;2.46;100.00
18323;BME280;9287;49.456;11.064;2023-04-20T04:16:53;98067.69;;;2.44;100.00
18323;BME280;9287;49.456;11.064;2023-04-20T04:19:21;98068.63;;;2.53;100.00
18323;BME280;9287;49.456;11.064;2023-04-20T04:21:49;98064.25;;;2.57;100.00
18323;BME280;9287;49.456;11.064;2023-04-20T04:24:17;98066.00;;;2.48;100.00
18323;BME280;9287;49.456;11.064;2023-04-20T04:26:45;98062.00;;;2.45;100.00
18323;BME280;9287;49.456;11.064;2023-04-20T04:29:14;98063.81;;;2.50;100.00
18323;BME280;9287;49.456;11.064;2023-04-20T04:31:43;98061.94;;;2.51;100.00
18323;BME280;9287;49.456;11.064;2023-04-20T04:34:11;98065.34;;;2.56;100.00
18323;BME280;9287;49.456;11.064;2023-04-20T04:36:39;98069.63;;;2.57;100.00
18323;BME280;9287;49.456;11.064;2023-04-20T04:39:08;98062.72;;;2.51;100.00
18323;BME280;9287;49.456;11.064;2023-04-20T04:41:37;98068.72;;;2.62;100.00
18323;BME280;9287;49.456;11.064;2023-04-20T04:44:05;98065.44;;;2.65;100.00
18323;BME280;9287;49.456;11.064;2023-04-20T04:46:34;98059.66;;;2.71;100.00
18323;BME280;9287;49.456;11.064;2023-04-20T04:49:03;98061.34;;;2.81;100.00
18323;BME280;9287;49.456;11.064;2023-04-20T04:51:31;98069.06;;;2.74;100.00
18323;BME280;9287;49.456;11.064;2023-04-20T04:54:00;98053.25;;;2.54;100.00
18323;BME280;9287;49.456;11.064;2023-04-20T04:56:29;98053.25;;;2.67;100.00
18323;BME280;9287;49.456;11.064;2023-04-20T04:58:57;98055.28;;;2.75;100.00
18323;BME280;9287;49.456;11.064;2023-04-20T05:01:25;98058.66;;;2.67;100.00
18323;BME280;9287;49.456;11.064;2023-04-20T05:03:53;98053.47;;;2.57;100.00
18323;BME280;9287;49.456;11.064;2023-04-20T05:06:24;98055.16;;;2.53;100.00
18323;BME280;9287;49.456;11.064;2023-04-20T05:08:53;98055.75;;;2.64;100.00
18323;BME280;9287;49.456;11.064;2023-04-20T05:11:21;98050.88;;;2.66;100.00
18323;BME280;9287;49.456;11.064;2023-04-20T05:13:51;98048.47;;;2.64;100.00
18323;BME280;9287;49.456;11.064;2023-04-20T05:16:20;98052.56;;;2.75;100.00
18323;BME280;9287;49.456;11.064;2023-04-20T05:18:48;98051.88;;;2.84;100.00
18323;BME280;9287;49.456;11.064;2023-04-20T05:21:17;98052.66;;;2.84;100.00
18323;BME280;9287;49.456;11.064;2023-04-20T05:23:46;98059.84;;;2.89;100.00
18323;BME280;9287;49.456;11.064;2023-04-20T05:26:14;98057.84;;;2.80;100.00
18323;BME280;9287;49.456;11.064;2023-04-20T05:28:42;98054.97;;;2.91;100.00
18323;BME280;9287;49.456;11.064;2023-04-20T05:31:11;98062.47;;;2.94;100.00
18323;BME280;9287;49.456;11.064;2023-04-20T05:33:40;98058.63;;;2.95;100.00
18323;BME280;9287;49.456;11.064;2023-04-20T05:36:09;98052.84;;;3.15;100.00
18323;BME280;9287;49.456;11.064;2023-04-20T05:38:37;98059.81;;;3.16;100.00
18323;BME280;9287;49.456;11.064;2023-04-20T05:41:07;98065.94;;;3.22;100.00
18323;BME280;9287;49.456;11.064;2023-04-20T05:43:36;98063.53;;;3.20;100.00
18323;BME280;9287;49.456;11.064;2023-04-20T05:46:04;98059.94;;;3.25;100.00
18323;BME280;9287;49.456;11.064;2023-04-20T05:48:32;98059.22;;;3.19;100.00
18323;BME280;9287;49.456;11.064;2023-04-20T05:51:00;98061.78;;;3.38;100.00
18323;BME280;9287;49.456;11.064;2023-04-20T05:53:28;98063.63;;;3.29;100.00
18323;BME280;9287;49.456;11.064;2023-04-20T05:55:56;98058.84;;;3.26;100.00
18323;BME280;9287;49.456;11.064;2023-04-20T05:58:26;98062.94;;;3.59;100.00
18323;BME280;9287;49.456;11.064;2023-04-20T06:00:54;98061.72;;;3.65;100.00
18323;BME280;9287;49.456;11.064;2023-04-20T06:03:22;98056.94;;;3.62;100.00
18323;BME280;9287;49.456;11.064;2023-04-20T06:05:50;98059.59;;;3.76;100.00
18323;BME280;9287;49.456;11.064;2023-04-20T06:08:18;98061.97;;;4.00;100.00
18323;BME280;9287;49.456;11.064;2023-04-20T06:10:46;98069.53;;;3.89;100.00
18323;BME280;9287;49.456;11.064;2023-04-20T06:13:14;98067.22;;;3.96;100.00
18323;BME280;9287;49.456;11.064;2023-04-20T06:15:43;98073.69;;;3.73;100.00
18323;BME280;9287;49.456;11.064;2023-04-20T06:18:11;98072.56;;;4.10;100.00
18323;BME280;9287;49.456;11.064;2023-04-20T06:20:39;98072.75;;;4.13;100.00
18323;BME280;9287;49.456;11.064;2023-04-20T06:23:07;98065.94;;;4.47;100.00
18323;BME280;9287;49.456;11.064;2023-04-20T06:25:35;98074.19;;;4.42;100.00
18323;BME280;9287;49.456;11.064;2023-04-20T06:28:03;98082.03;;;4.92;100.00
18323;BME280;9287;49.456;11.064;2023-04-20T06:30:31;98067.50;;;5.27;100.00
18323;BME280;9287;49.456;11.064;2023-04-20T06:33:01;98077.75;;;5.65;100.00
18323;BME280;9287;49.456;11.064;2023-04-20T06:35:29;98078.75;;;6.03;100.00
18323;BME280;9287;49.456;11.064;2023-04-20T06:37:57;98079.38;;;6.17;100.00
18323;BME280;9287;49.456;11.064;2023-04-20T06:40:28;98069.13;;;6.32;100.00
18323;BME280;9287;49.456;11.064;2023-04-20T06:42:56;98067.56;;;6.77;100.00
18323;BME280;9287;49.456;11.064;2023-04-20T06:45:24;98066.97;;;7.39;100.00
18323;BME280;9287;49.456;11.064;2023-04-20T06:47:52;98059.44;;;9.10;87.39
18323;BME280;9287;49.456;11.064;2023-04-20T06:50:21;98077.19;;;10.08;72.83
18323;BME280;9287;49.456;11.064;2023-04-20T06:52:49;98068.50;;;11.72;62.53
18323;BME280;9287;49.456;11.064;2023-04-20T06:55:17;98065.72;;;14.49;51.97
18323;BME280;9287;49.456;11.064;2023-04-20T06:57:46;98065.34;;;11.03;57.76
18323;BME280;9287;49.456;11.064;2023-04-20T07:00:15;98067.53;;;11.13;61.33
18323;BME280;9287;49.456;11.064;2023-04-20T07:02:45;98071.47;;;10.53;61.53
18323;BME280;9287;49.456;11.064;2023-04-20T07:05:15;98066.81;;;8.52;73.64
18323;BME280;9287;49.456;11.064;2023-04-20T07:07:45;98071.28;;;10.46;66.03
18323;BME280;9287;49.456;11.064;2023-04-20T07:10:14;98067.72;;;13.13;52.88
18323;BME280;9287;49.456;11.064;2023-04-20T07:12:42;98053.09;;;13.29;51.34
18323;BME280;9287;49.456;11.064;2023-04-20T07:15:10;98060.56;;;12.21;54.18
18323;BME280;9287;49.456;11.064;2023-04-20T07:17:40;98069.78;;;15.03;47.17
18323;BME280;9287;49.456;11.064;2023-04-20T07:20:08;98057.38;;;13.52;50.03
18323;BME280;9287;49.456;11.064;2023-04-20T07:22:37;98063.44;;;14.58;47.42
18323;BME280;9287;49.456;11.064;2023-04-20T07:25:07;98059.69;;;15.65;46.12
18323;BME280;9287;49.456;11.064;2023-04-20T07:27:37;98066.50;;;13.34;49.27
18323;BME280;9287;49.456;11.064;2023-04-20T07:30:06;98059.47;;;12.68;51.04
18323;BME280;9287;49.456;11.064;2023-04-20T07:32:35;98058.63;;;12.86;50.59
18323;BME280;9287;49.456;11.064;2023-04-20T07:35:06;98069.81;;;12.97;50.34
18323;BME280;9287;49.456;11.064;2023-04-20T07:37:34;98057.00;;;13.54;50.21
18323;BME280;9287;49.456;11.064;2023-04-20T07:40:03;98058.50;;;11.79;53.63
18323;BME280;9287;49.456;11.064;2023-04-20T07:42:34;98060.28;;;12.07;53.92
18323;BME280;9287;49.456;11.064;2023-04-20T07:45:03;98052.75;;;12.62;51.86
18323;BME280;9287;49.456;11.064;2023-04-20T07:47:32;98052.22;;;11.95;53.72
18323;BME280;9287;49.456;11.064;2023-04-20T07:50:00;98061.25;;;13.02;51.46
18323;BME280;9287;49.456;11.064;2023-04-20T07:52:28;98059.88;;;10.88;57.34
18323;BME280;9287;49.456;11.064;2023-04-20T07:54:58;98063.38;;;11.70;55.34
18323;BME280;9287;49.456;11.064;2023-04-20T07:57:27;98061.84;;;12.46;53.85
18323;BME280;9287;49.456;11.064;2023-04-20T07:59:57;98058.50;;;11.79;55.10
18323;BME280;9287;49.456;11.064;2023-04-20T08:02:25;98064.50;;;11.85;55.53
18323;BME280;9287;49.456;11.064;2023-04-20T08:04:55;98061.66;;;10.36;58.80
18323;BME280;9287;49.456;11.064;2023-04-20T08:07:23;98047.06;;;11.39;57.88
18323;BME280;9287;49.456;11.064;2023-04-20T08:09:50;98050.44;;;10.85;56.95
18323;BME280;9287;49.456;11.064;2023-04-20T08:12:19;98058.38;;;10.90;56.80
18323;BME280;9287;49.456;11.064;2023-04-20T08:14:47;98035.22;;;12.05;54.29
18323;BME280;9287;49.456;11.064;2023-04-20T08:17:16;98037.53;;;10.38;58.66
18323;BME280;9287;49.456;11.064;2023-04-20T08:19:44;98046.63;;;10.58;58.63
18323;BME280;9287;49.456;11.064;2023-04-20T08:22:12;98038.88;;;11.23;56.86
18323;BME280;9287;49.456;11.064;2023-04-20T08:24:39;98043.50;;;11.54;54.63
18323;BME280;9287;49.456;11.064;2023-04-20T08:27:07;98039.97;;;12.08;53.17
18323;BME280;9287;49.456;11.064;2023-04-20T08:29:36;98038.94;;;12.77;51.61
18323;BME280;9287;49.456;11.064;2023-04-20T08:32:04;98038.56;;;12.79;51.44
18323;BME280;9287;49.456;11.064;2023-04-20T08:34:35;98027.50;;;12.10;51.32
18323;BME280;9287;49.456;11.064;2023-04-20T08:37:04;98027.91;;;11.39;53.72
18323;BME280;9287;49.456;11.064;2023-04-20T08:39:32;98031.88;;;11.96;52.63
18323;BME280;9287;49.456;11.064;2023-04-20T08:42:00;98020.56;;;13.04;49.89
18323;BME280;9287;49.456;11.064;2023-04-20T08:44:30;98033.91;;;13.55;48.18
18323;BME280;9287;49.456;11.064;2023-04-20T08:46:58;98024.25;;;11.85;51.03
18323;BME280;9287;49.456;11.064;2023-04-20T08:49:28;98027.31;;;11.30;53.68
18323;BME280;9287;49.456;11.064;2023-04-20T08:51:58;98027.09;;;10.88;54.73
18323;BME280;9287;49.456;11.064;2023-04-20T08:54:26;98027.00;;;10.68;57.02
18323;BME280;9287;49.456;11.064;2023-04-20T08:56:54;98018.47;;;10.26;57.55
18323;BME280;9287;49.456;11.064;2023-04-20T08:59:22;98020.75;;;10.99;56.01
18323;BME280;9287;49.456;11.064;2023-04-20T09:01:50;98023.28;;;10.61;57.30
18323;BME280;9287;49.456;11.064;2023-04-20T09:04:21;98025.56;;;10.59;57.08
18323;BME280;9287;49.456;11.064;2023-04-20T09:06:52;98020.13;;;10.90;56.52
18323;BME280;9287;49.456;11.064;2023-04-20T09:09:22;98030.19;;;9.99;59.75
18323;BME280;9287;49.456;11.064;2023-04-20T09:11:59;98041.94;;;10.15;61.35
18323;BME280;9287;49.456;11.064;2023-04-20T09:14:28;98037.91;;;9.97;60.44
18323;BME280;9287;49.456;11.064;2023-04-20T09:16:57;98035.56;;;9.19;65.75
18323;BME280;9287;49.456;11.064;2023-04-20T09:19:35;98030.34;;;9.26;66.01
18323;BME280;9287;49.456;11.064;2023-04-20T09:22:06;98026.25;;;8.59;69.43
18323;BME280;9287;49.456;11.064;2023-04-20T09:24:36;98032.19;;;9.10;67.29
18323;BME280;9287;49.456;11.064;2023-04-20T09:27:37;98019.47;;;9.01;66.26
18323;BME280;9287;49.456;11.064;2023-04-20T09:30:54;98027.25;;;9.39;65.15
18323;BME280;9287;49.456;11.064;2023-04-20T09:33:27;98016.06;;;9.29;65.70
18323;BME280;9287;49.456;11.064;2023-04-20T09:36:02;98020.97;;;10.31;60.91
18323;BME280;9287;49.456;11.064;2023-04-20T09:38:47;98013.59;;;10.79;59.75
18323;BME280;9287;49.456;11.064;2023-04-20T09:45:07;98007.75;;;10.33;58.08
18323;BME280;9287;49.456;11.064;2023-04-20T09:47:35;98011.31;;;10.50;58.06
18323;BME280;9287;49.456;11.064;2023-04-20T09:50:09;98013.59;;;9.64;61.77
18323;BME280;9287;49.456;11.064;2023-04-20T09:52:52;98010.59;;;9.04;65.55
18323;BME280;9287;49.456;11.064;2023-04-20T09:55:20;98006.28;;;9.03;66.95
18323;BME280;9287;49.456;11.064;2023-04-20T09:57:50;98004.44;;;9.44;65.10
18323;BME280;9287;49.456;11.064;2023-04-20T10:00:20;98007.69;;;8.97;69.51
18323;BME280;9287;49.456;11.064;2023-04-20T10:02:48;97992.69;;;9.68;66.33
18323;BME280;9287;49.456;11.064;2023-04-20T10:05:31;98002.25;;;9.90;65.55
18323;BME280;9287;49.456;11.064;2023-04-20T10:08:02;98004.25;;;9.13;68.64
18323;BME280;9287;49.456;11.064;2023-04-20T10:10:42;97998.78;;;9.25;68.76
18323;BME280;9287;49.456;11.064;2023-04-20T10:13:14;97997.09;;;9.08;71.30
18323;BME280;9287;49.456;11.064;2023-04-20T10:15:45;97989.75;;;8.96;70.10
18323;BME280;9287;49.456;11.064;2023-04-20T10:18:16;97987.47;;;8.98;71.31
18323;BME280;9287;49.456;11.064;2023-04-20T10:20:45;97978.41;;;8.58;74.76
18323;BME280;9287;49.456;11.064;2023-04-20T10:23:14;97988.38;;;8.90;75.06
18323;BME280;9287;49.456;11.064;2023-04-20T10:25:55;97976.78;;;9.58;70.27
18323;BME280;9287;49.456;11.064;2023-04-20T10:28:37;97980.28;;;9.18;69.54
18323;BME280;9287;49.456;11.064;2023-04-20T10:31:06;97968.81;;;9.25;70.62
18323;BME280;9287;49.456;11.064;2023-04-20T10:33:48;97958.59;;;9.22;69.94
18323;BME280;9287;49.456;11.064;2023-04-20T10:36:23;97965.69;;;8.98;72.18
18323;BME280;9287;49.456;11.064;2023-04-20T10:38:51;97965.69;;;9.11;72.10
18323;BME280;9287;49.456;11.064;2023-04-20T10:41:20;97957.94;;;9.25;72.00
18323;BME280;9287;49.456;11.064;2023-04-20T10:43:49;97951.63;;;8.96;73.48
18323;BME280;9287;49.456;11.064;2023-04-20T10:46:18;97954.63;;;9.19;75.04
18323;BME280;9287;49.456;11.064;2023-04-20T10:48:51;97962.06;;;8.58;79.61
18323;BME280;9287;49.456;11.064;2023-04-20T10:51:21;97955.81;;;8.57;81.88
18323;BME280;9287;49.456;11.064;2023-04-20T10:53:59;97947.50;;;8.29;83.12
18323;BME280;9287;49.456;11.064;2023-04-20T10:56:35;97944.66;;;8.26;83.54
18323;BME280;9287;49.456;11.064;2023-04-20T10:59:08;97936.16;;;8.27;84.01
18323;BME280;9287;49.456;11.064;2023-04-20T11:01:36;97936.66;;;8.54;83.51
18323;BME280;9287;49.456;11.064;2023-04-20T11:04:04;97933.03;;;8.62;83.06
18323;BME280;9287;49.456;11.064;2023-04-20T11:06:33;97935.28;;;8.72;82.16
18323;BME280;9287;49.456;11.064;2023-04-20T11:09:01;97922.69;;;8.92;80.85
18323;BME280;9287;49.456;11.064;2023-04-20T11:11:30;97919.31;;;8.83;81.29
18323;BME280;9287;49.456;11.064;2023-04-20T11:14:05;97913.00;;;9.06;80.85
18323;BME280;9287;49.456;11.064;2023-04-20T11:16:36;97915.78;;;8.82;82.43
18323;BME280;9287;49.456;11.064;2023-04-20T11:19:07;97911.41;;;9.05;80.00
18323;BME280;9287;49.456;11.064;2023-04-20T11:21:36;97906.72;;;9.58;76.84
18323;BME280;9287;49.456;11.064;2023-04-20T11:24:05;97886.69;;;9.11;78.41
18323;BME280;9287;49.456;11.064;2023-04-20T11:26:43;97891.31;;;9.50;78.61
18323;BME280;9287;49.456;11.064;2023-04-20T11:29:11;97881.63;;;9.81;75.95
18323;BME280;9287;49.456;11.064;2023-04-20T11:31:41;97872.13;;;10.06;73.47
18323;BME280;9287;49.456;11.064;2023-04-20T11:34:16;97866.69;;;10.06;71.88
18323;BME280;9287;49.456;11.064;2023-04-20T11:36:44;97873.28;;;10.05;71.44
18323;BME280;9287;49.456;11.064;2023-04-20T11:39:12;97880.59;;;10.01;72.40
18323;BME280;9287;49.456;11.064;2023-04-20T11:41:40;97873.69;;;9.75;75.82
18323;BME280;9287;49.456;11.064;2023-04-20T11:44:08;97863.78;;;10.15;73.13
18323;BME280;9287;49.456;11.064;2023-04-20T11:46:41;97868.59;;;9.90;73.29
18323;BME280;9287;49.456;11.064;2023-04-20T11:49:11;97882.19;;;10.02;72.95
18323;BME280;9287;49.456;11.064;2023-04-20T11:51:39;97879.50;;;9.90;73.71
18323;BME280;9287;49.456;11.064;2023-04-20T11:54:08;97878.97;;;9.40;77.96
18323;BME280;9287;49.456;11.064;2023-04-20T11:56:36;97880.75;;;9.49;77.51
18323;BME280;9287;49.456;11.064;2023-04-20T11:59:04;97880.22;;;9.03;80.59
18323;BME280;9287;49.456;11.064;2023-04-20T12:01:33;97882.59;;;9.04;79.86
18323;BME280;9287;49.456;11.064;2023-04-20T12:04:02;97875.81;;;8.86;82.57
18323;BME280;9287;49.456;11.064;2023-04-20T12:06:31;97875.16;;;8.89;83.06
18323;BME280;9287;49.456;11.064;2023-04-20T12:08:59;97875.81;;;8.98;83.27
18323;BME280;9287;49.456;11.064;2023-04-20T12:11:27;97887.84;;;8.97;84.12
18323;BME280;9287;49.456;11.064;2023-04-20T12:13:55;97875.69;;;9.07;84.25
18323;BME280;9287;49.456;11.064;2023-04-20T12:16:23;97879.94;;;8.80;85.96
18323;BME280;9287;49.456;11.064;2023-04-20T12:18:51;97876.31;;;8.76;87.03
18323;BME280;9287;49.456;11.064;2023-04-20T12:21:21;97878.47;;;8.70;87.30
18323;BME280;9287;49.456;11.064;2023-04-20T12:23:49;97883.13;;;8.70;87.13
18323;BME280;9287;49.456;11.064;2023-04-20T12:26:18;97872.28;;;8.46;89.48
18323;BME280;9287;49.456;11.064;2023-04-20T12:28:49;97876.19;;;8.72;88.87
18323;BME280;9287;49.456;11.064;2023-04-20T12:31:17;97882.63;;;8.92;88.35
18323;BME280;9287;49.456;11.064;2023-04-20T12:33:45;97884.41;;;9.13;85.79
18323;BME280;9287;49.456;11.064;2023-04-20T12:36:13;97879.72;;;8.73;89.08
18323;BME280;9287;49.456;11.064;2023-04-20T12:38:42;97887.44;;;8.59;91.02
18323;BME280;9287;49.456;11.064;2023-04-20T12:41:12;97890.06;;;8.43;92.27
18323;BME280;9287;49.456;11.064;2023-04-20T12:43:40;97882.63;;;8.31;93.21
18323;BME280;9287;49.456;11.064;2023-04-20T12:46:08;97873.94;;;8.50;94.65
18323;BME280;9287;49.456;11.064;2023-04-20T12:48:36;97877.47;;;8.63;93.22
18323;BME280;9287;49.456;11.064;2023-04-20T12:51:04;97869.75;;;8.65;94.17
18323;BME280;9287;49.456;11.064;2023-04-20T12:53:32;97864.31;;;8.65;94.12
18323;BME280;9287;49.456;11.064;2023-04-20T12:56:01;97873.38;;;8.57;95.14
18323;BME280;9287;49.456;11.064;2023-04-20T12:58:29;97870.69;;;8.45;97.03
18323;BME280;9287;49.456;11.064;2023-04-20T13:00:57;97881.66;;;8.36;98.94
18323;BME280;9287;49.456;11.064;2023-04-20T13:03:25;97880.88;;;8.35;99.16
18323;BME280;9287;49.456;11.064;2023-04-20T13:05:53;97882.69;;;8.56;98.58
18323;BME280;9287;49.456;11.064;2023-04-20T13:08:21;97880.84;;;8.72;97.15
18323;BME280;9287;49.456;11.064;2023-04-20T13:10:49;97882.44;;;8.73;97.48
18323;BME280;9287;49.456;11.064;2023-04-20T13:13:18;97880.19;;;8.51;98.28
18323;BME280;9287;49.456;11.064;2023-04-20T13:15:46;97875.66;;;8.55;99.10
18323;BME280;9287;49.456;11.064;2023-04-20T13:18:14;97878.16;;;8.60;98.07
18323;BME280;9287;49.456;11.064;2023-04-20T13:20:42;97877.47;;;8.63;98.43